createdAt,value
2023-05-25T00:01:35.314Z,55.23
2023-05-25T00:04:05.197Z,55.33
2023-05-25T00:06:32.862Z,55.25
2023-05-25T00:08:59.290Z,55.32
2023-05-25T00:11:26.563Z,55.25
2023-05-25T00:13:53.451Z,55.50
2023-05-25T00:16:20.540Z,55.74
2023-05-25T00:18:48.648Z,56.00
2023-05-25T00:21:16.245Z,56.04
2023-05-25T00:23:43.208Z,55.95
2023-05-25T00:26:09.654Z,56.26
2023-05-25T00:28:36.099Z,56.43
2023-05-25T00:31:02.539Z,56.61
2023-05-25T00:33:29.025Z,56.79
2023-05-25T00:35:57.057Z,56.61
2023-05-25T00:38:23.470Z,56.95
2023-05-25T00:40:55.227Z,56.54
2023-05-25T00:43:21.620Z,56.47
2023-05-25T00:45:48.027Z,56.63
2023-05-25T00:48:15.888Z,56.63
2023-05-25T00:50:44.262Z,56.78
2023-05-25T00:53:12.744Z,56.73
2023-05-25T00:55:54.760Z,56.61
2023-05-25T00:58:24.404Z,56.85
2023-05-25T01:00:53.365Z,57.24
2023-05-25T01:03:21.846Z,57.08
2023-05-25T01:05:51.254Z,57.23
2023-05-25T01:08:21.226Z,56.71
2023-05-25T01:10:51.677Z,56.81
2023-05-25T01:13:20.107Z,56.80
2023-05-25T01:15:47.931Z,56.95
2023-05-25T01:18:15.919Z,56.54
2023-05-25T01:21:12.990Z,56.49
2023-05-25T01:23:47.181Z,56.70
2023-05-25T01:26:18.248Z,56.58
2023-05-25T01:28:51.390Z,56.63
2023-05-25T01:31:21.926Z,56.98
2023-05-25T01:33:51.360Z,57.09
2023-05-25T01:36:18.972Z,57.34
2023-05-25T01:38:45.630Z,57.43
2023-05-25T01:41:30.737Z,57.74
2023-05-25T01:43:57.251Z,57.47
2023-05-25T01:46:32.980Z,57.30
2023-05-25T01:49:21.471Z,57.20
2023-05-25T01:51:55.658Z,56.85
2023-05-25T01:54:28.797Z,56.95
2023-05-25T01:57:01.236Z,57.30
2023-05-25T01:59:29.363Z,57.34
2023-05-25T02:01:56.892Z,57.27
2023-05-25T02:04:23.484Z,57.28
2023-05-25T02:06:51.959Z,57.32
2023-05-25T02:09:18.397Z,57.91
2023-05-25T02:11:44.811Z,58.34
2023-05-25T02:14:11.378Z,58.67
2023-05-25T02:16:37.841Z,58.37
2023-05-25T02:19:04.364Z,58.01
2023-05-25T02:21:31.260Z,57.95
2023-05-25T02:23:58.088Z,57.81
2023-05-25T02:26:24.539Z,57.75
2023-05-25T02:28:51.502Z,58.70
2023-05-25T02:31:18.432Z,58.65
2023-05-25T02:33:44.846Z,59.47
2023-05-25T02:36:11.218Z,59.45
2023-05-25T02:38:37.572Z,60.02
2023-05-25T02:41:03.969Z,60.49
2023-05-25T02:43:30.481Z,60.76
2023-05-25T02:45:56.887Z,61.39
2023-05-25T02:48:24.447Z,61.55
2023-05-25T02:50:50.854Z,61.75
2023-05-25T02:53:17.242Z,61.76
2023-05-25T02:55:43.941Z,61.99
2023-05-25T02:58:10.535Z,62.15
2023-05-25T03:00:37.789Z,61.99
2023-05-25T03:03:04.368Z,62.17
2023-05-25T03:05:34.501Z,62.47
2023-05-25T03:08:01.431Z,62.96
2023-05-25T03:10:28.106Z,62.75
2023-05-25T03:12:54.476Z,62.85
2023-05-25T03:15:20.952Z,62.98
2023-05-25T03:17:47.460Z,63.13
2023-05-25T03:20:15.535Z,62.72
2023-05-25T03:22:43.312Z,62.85
2023-05-25T03:25:13.056Z,62.72
2023-05-25T03:27:39.863Z,62.36
2023-05-25T03:30:06.939Z,62.27
2023-05-25T03:32:33.945Z,62.30
2023-05-25T03:35:00.378Z,61.93
2023-05-25T03:37:26.923Z,61.71
2023-05-25T03:39:53.318Z,61.16
2023-05-25T03:42:19.686Z,61.19
2023-05-25T03:44:46.184Z,61.30
2023-05-25T03:47:13.300Z,60.82
2023-05-25T03:49:39.726Z,60.78
2023-05-25T03:52:06.348Z,60.51
2023-05-25T03:54:32.782Z,60.18
2023-05-25T03:56:59.448Z,60.14
2023-05-25T03:59:26.069Z,60.22
2023-05-25T04:01:52.476Z,60.02
2023-05-25T04:04:18.929Z,59.91
2023-05-25T04:06:49.067Z,59.88
2023-05-25T04:09:15.791Z,59.85
2023-05-25T04:11:42.196Z,59.77
2023-05-25T04:14:08.627Z,59.54
2023-05-25T04:16:35.462Z,59.56
2023-05-25T04:19:02.026Z,59.55
2023-05-25T04:21:28.513Z,59.47
2023-05-25T04:23:54.908Z,59.54
2023-05-25T04:26:21.303Z,59.20
2023-05-25T04:28:48.250Z,59.24
2023-05-25T04:31:14.782Z,59.08
2023-05-25T04:33:41.197Z,58.98
2023-05-25T04:36:11.108Z,59.11
2023-05-25T04:38:38.026Z,58.96
2023-05-25T04:41:05.756Z,58.32
2023-05-25T04:43:32.451Z,58.75
2023-05-25T04:46:00.028Z,58.44
2023-05-25T04:48:28.472Z,58.68
2023-05-25T04:50:55.925Z,58.56
2023-05-25T04:53:23.049Z,58.63
2023-05-25T04:55:49.626Z,58.68
2023-05-25T04:58:16.020Z,58.40
2023-05-25T05:00:42.611Z,58.37
2023-05-25T05:03:09.146Z,58.23
2023-05-25T05:05:36.750Z,58.12
2023-05-25T05:08:03.570Z,57.93
2023-05-25T05:10:29.958Z,57.71
2023-05-25T05:12:56.516Z,57.62
2023-05-25T05:15:22.921Z,57.67
2023-05-25T05:17:49.362Z,57.28
2023-05-25T05:20:16.059Z,57.12
2023-05-25T05:22:43.620Z,56.99
2023-05-25T05:25:10.161Z,57.03
2023-05-25T05:27:36.560Z,57.01
2023-05-25T05:30:03.834Z,57.06
2023-05-25T05:32:30.665Z,56.78
2023-05-25T05:34:57.125Z,56.74
2023-05-25T05:37:23.489Z,56.95
2023-05-25T05:39:52.512Z,56.86
2023-05-25T05:42:19.043Z,56.66
2023-05-25T05:44:45.432Z,56.36
2023-05-25T05:47:12.267Z,56.54
2023-05-25T05:49:39.366Z,56.21
2023-05-25T05:52:06.681Z,56.36
2023-05-25T05:54:33.105Z,56.49
2023-05-25T05:56:59.457Z,56.43
2023-05-25T05:59:26.516Z,56.39
2023-05-25T06:01:53.033Z,56.37
2023-05-25T06:04:26.054Z,56.58
2023-05-25T06:06:52.462Z,56.35
2023-05-25T06:09:18.847Z,56.35
2023-05-25T06:11:45.429Z,56.33
2023-05-25T06:14:11.826Z,56.26
2023-05-25T06:16:38.236Z,56.05
2023-05-25T06:19:04.737Z,56.00
2023-05-25T06:21:31.153Z,55.94
2023-05-25T06:24:00.695Z,55.69
2023-05-25T06:26:27.289Z,55.99
2023-05-25T06:28:54.193Z,56.03
2023-05-25T06:31:20.912Z,56.10
2023-05-25T06:33:47.368Z,55.78
2023-05-25T06:36:15.754Z,55.81
2023-05-25T06:38:42.394Z,55.77
2023-05-25T06:41:09.672Z,55.95
2023-05-25T06:43:36.086Z,55.94
2023-05-25T06:46:02.540Z,55.77
2023-05-25T06:48:28.961Z,56.11
2023-05-25T06:50:55.356Z,56.09
2023-05-25T06:53:21.726Z,56.14
2023-05-25T06:55:49.227Z,55.96
2023-05-25T06:58:15.669Z,55.86
2023-05-25T07:00:42.597Z,55.74
2023-05-25T07:03:10.159Z,56.09
2023-05-25T07:05:36.555Z,55.72
2023-05-25T07:08:02.932Z,55.67
2023-05-25T07:10:29.290Z,55.95
2023-05-25T07:12:55.708Z,55.62
2023-05-25T07:15:22.715Z,55.31
2023-05-25T07:17:49.942Z,55.41
2023-05-25T07:20:16.532Z,55.35
2023-05-25T07:22:43.534Z,54.27
2023-05-25T07:25:10.079Z,53.80
2023-05-25T07:27:36.617Z,53.16
2023-05-25T07:30:03.356Z,53.24
2023-05-25T07:32:29.750Z,52.59
2023-05-25T07:34:56.120Z,51.30
2023-05-25T07:37:22.634Z,51.23
2023-05-25T07:39:49.079Z,51.00
2023-05-25T07:42:20.674Z,50.86
2023-05-25T07:44:50.118Z,50.27
2023-05-25T07:47:16.593Z,50.44
2023-05-25T07:49:42.962Z,50.75
2023-05-25T07:52:09.431Z,50.95
2023-05-25T07:54:39.984Z,51.18
2023-05-25T07:57:07.141Z,50.82
2023-05-25T07:59:33.543Z,50.96
2023-05-25T08:01:59.929Z,50.86
2023-05-25T08:04:26.454Z,50.84
2023-05-25T08:06:53.161Z,50.50
2023-05-25T08:09:19.553Z,50.47
2023-05-25T08:11:47.428Z,50.28
2023-05-25T08:14:14.095Z,49.52
2023-05-25T08:16:40.795Z,49.84
2023-05-25T08:19:07.163Z,49.88
2023-05-25T08:21:34.981Z,50.15
2023-05-25T08:24:04.164Z,50.26
2023-05-25T08:26:41.694Z,50.24
2023-05-25T08:29:12.350Z,50.70
2023-05-25T08:31:39.068Z,50.33
2023-05-25T08:34:05.504Z,50.03
2023-05-25T08:36:35.840Z,49.93
2023-05-25T08:39:04.411Z,49.52
2023-05-25T08:41:32.189Z,49.77
2023-05-25T08:43:58.665Z,49.36
2023-05-25T08:46:31.243Z,49.11
2023-05-25T08:49:12.004Z,48.91
2023-05-25T08:51:42.523Z,49.36
2023-05-25T08:54:20.717Z,49.66
2023-05-25T08:56:53.009Z,49.75
2023-05-25T08:59:36.279Z,49.84
2023-05-25T09:02:18.641Z,50.03
2023-05-25T09:04:45.298Z,49.56
2023-05-25T09:07:12.178Z,48.59
2023-05-25T09:09:39.914Z,48.36
2023-05-25T09:12:07.350Z,47.78
2023-05-25T09:14:34.986Z,48.05
2023-05-25T09:17:01.657Z,48.06
2023-05-25T09:19:28.053Z,47.21
2023-05-25T09:22:03.052Z,47.60
2023-05-25T09:24:35.134Z,47.25
2023-05-25T09:27:03.554Z,47.32
2023-05-25T09:29:29.946Z,47.72
2023-05-25T09:31:56.746Z,48.00
2023-05-25T09:34:23.192Z,48.15
2023-05-25T09:36:49.795Z,48.10
2023-05-25T09:39:17.096Z,47.55
2023-05-25T09:41:43.668Z,47.03
2023-05-25T09:44:12.014Z,46.79
2023-05-25T09:46:39.228Z,46.79
2023-05-25T09:49:11.358Z,46.94
2023-05-25T09:51:38.347Z,46.60
2023-05-25T09:54:08.373Z,46.31
2023-05-25T09:56:34.761Z,46.94
2023-05-25T09:59:01.500Z,46.94
2023-05-25T10:01:28.713Z,46.99
2023-05-25T10:06:49.673Z,47.10
2023-05-25T10:09:19.154Z,46.36
2023-05-25T10:11:46.423Z,46.09
2023-05-25T10:14:16.225Z,46.29
2023-05-25T10:16:48.250Z,46.06
2023-05-25T10:19:21.929Z,46.57
2023-05-25T10:22:01.235Z,46.41
2023-05-25T10:24:42.918Z,46.00
2023-05-25T10:27:25.614Z,46.37
2023-05-25T10:29:56.563Z,45.27
2023-05-25T10:32:23.591Z,44.80
2023-05-25T10:34:52.721Z,43.99
2023-05-25T10:37:19.315Z,43.79
2023-05-25T10:39:46.167Z,43.38
2023-05-25T10:42:13.242Z,43.44
2023-05-25T10:44:43.293Z,44.02
2023-05-25T10:47:10.699Z,43.71
2023-05-25T10:49:55.987Z,44.20
2023-05-25T10:52:27.614Z,43.62
2023-05-25T10:54:58.099Z,43.43
2023-05-25T10:57:26.036Z,43.10
2023-05-25T11:00:00.987Z,42.56
2023-05-25T11:02:32.156Z,42.39
2023-05-25T11:05:30.500Z,41.80
2023-05-25T11:08:07.018Z,41.65
2023-05-25T11:10:44.310Z,42.07
2023-05-25T11:13:34.522Z,42.06
2023-05-25T11:16:14.934Z,42.53
2023-05-25T11:18:43.378Z,42.02
2023-05-25T11:21:22.072Z,42.16
2023-05-25T11:23:54.550Z,41.44
2023-05-25T11:26:22.755Z,41.52
2023-05-25T11:28:51.193Z,41.77
2023-05-25T11:31:29.071Z,41.27
2023-05-25T11:33:57.469Z,41.09
2023-05-25T11:36:25.581Z,40.84
2023-05-25T11:39:02.402Z,40.51
2023-05-25T11:41:30.071Z,40.04
2023-05-25T11:43:56.952Z,39.90
2023-05-25T11:46:23.360Z,40.22
2023-05-25T11:48:54.398Z,39.56
2023-05-25T11:51:23.044Z,39.90
2023-05-25T11:53:50.031Z,39.98
2023-05-25T11:56:33.692Z,40.02
2023-05-25T11:59:01.844Z,40.26
2023-05-25T12:01:32.337Z,39.56
2023-05-25T12:04:08.622Z,38.63
2023-05-25T12:06:36.746Z,38.89
2023-05-25T12:09:06.946Z,37.95
2023-05-25T12:11:38.172Z,38.63
2023-05-25T12:14:06.545Z,38.69
2023-05-25T12:16:39.023Z,38.96
2023-05-25T12:19:10.817Z,39.07
2023-05-25T12:21:39.178Z,39.54
2023-05-25T12:24:06.357Z,39.40
2023-05-25T12:26:32.998Z,39.27
2023-05-25T12:29:01.323Z,39.11
2023-05-25T12:31:34.111Z,38.81
2023-05-25T12:34:17.857Z,37.71
2023-05-25T12:36:50.711Z,37.97
2023-05-25T12:39:39.193Z,37.44
2023-05-25T12:42:12.100Z,37.37
2023-05-25T12:44:38.676Z,37.37
2023-05-25T12:47:23.391Z,37.31
2023-05-25T12:49:51.997Z,37.22
2023-05-25T12:52:37.311Z,38.02
2023-05-25T12:55:26.979Z,37.77
2023-05-25T12:58:02.307Z,37.44
2023-05-25T13:00:35.979Z,37.28
2023-05-25T13:03:03.455Z,37.23
2023-05-25T13:05:36.555Z,37.20
2023-05-25T13:08:05.247Z,37.58
2023-05-25T13:10:33.319Z,38.16
2023-05-25T13:12:59.960Z,38.05
2023-05-25T13:15:27.233Z,37.98
2023-05-25T13:17:54.783Z,37.40
2023-05-25T13:20:23.616Z,36.96
2023-05-25T13:22:51.682Z,36.67
2023-05-25T13:25:18.192Z,36.42
2023-05-25T13:27:50.152Z,36.76
2023-05-25T13:30:17.281Z,36.77
2023-05-25T13:32:44.449Z,37.09
2023-05-25T13:35:36.949Z,37.37
2023-05-25T13:38:03.543Z,37.14
2023-05-25T13:40:30.005Z,37.12
2023-05-25T13:42:56.477Z,36.73
2023-05-25T13:45:22.843Z,36.74
2023-05-25T13:47:49.811Z,36.51
2023-05-25T13:50:16.338Z,36.59
2023-05-25T13:52:42.716Z,36.73
2023-05-25T13:55:09.159Z,36.05
2023-05-25T13:57:35.592Z,35.84
2023-05-25T14:00:01.967Z,35.59
2023-05-25T14:02:29.234Z,35.60
2023-05-25T14:04:57.147Z,35.88
2023-05-25T14:07:23.830Z,35.78
2023-05-25T14:09:51.284Z,35.54
2023-05-25T14:12:17.689Z,35.23
2023-05-25T14:14:44.063Z,35.48
2023-05-25T14:17:17.061Z,35.89
2023-05-25T14:19:43.432Z,34.86
2023-05-25T14:22:13.913Z,35.35
2023-05-25T14:24:40.902Z,35.59
2023-05-25T14:27:07.435Z,35.23
2023-05-25T14:29:34.157Z,35.34
2023-05-25T14:32:00.988Z,35.05
2023-05-25T14:34:27.915Z,35.19
2023-05-25T14:36:54.420Z,35.52
2023-05-25T14:39:20.827Z,35.67
2023-05-25T14:41:47.209Z,35.53
2023-05-25T14:44:13.604Z,35.52
2023-05-25T14:46:40.021Z,35.79
2023-05-25T14:49:06.385Z,35.73
2023-05-25T14:51:32.748Z,35.64
2023-05-25T14:54:01.208Z,35.26
2023-05-25T14:56:28.367Z,34.93
2023-05-25T14:58:54.749Z,34.90
2023-05-25T15:01:23.690Z,35.07
2023-05-25T15:03:51.785Z,35.13
2023-05-25T15:06:18.290Z,35.43
2023-05-25T15:08:44.641Z,35.23
2023-05-25T15:11:11.086Z,35.06
2023-05-25T15:13:37.453Z,34.46
2023-05-25T15:16:04.183Z,34.08
2023-05-25T15:18:30.605Z,34.00
2023-05-25T15:20:58.008Z,34.02
2023-05-25T15:23:24.460Z,34.27
2023-05-25T15:25:50.858Z,34.28
2023-05-25T15:28:17.294Z,34.21
2023-05-25T15:30:43.716Z,34.48
2023-05-25T15:33:10.177Z,34.45
2023-05-25T15:35:36.626Z,33.85
2023-05-25T15:38:03.022Z,34.11
2023-05-25T15:40:29.481Z,33.99
2023-05-25T15:42:56.286Z,34.04
2023-05-25T15:45:22.658Z,34.49
2023-05-25T15:47:50.384Z,34.36
2023-05-25T15:50:17.104Z,33.97
2023-05-25T15:52:43.484Z,34.06
2023-05-25T15:55:09.966Z,33.93
2023-05-25T15:57:36.366Z,33.52
2023-05-25T16:00:02.863Z,32.74
2023-05-25T16:02:29.259Z,33.46
2023-05-25T16:04:55.701Z,33.28
2023-05-25T16:07:22.168Z,32.81
2023-05-25T16:09:48.576Z,32.68
2023-05-25T16:12:15.285Z,32.88
2023-05-25T16:14:41.736Z,32.77
2023-05-25T16:17:08.219Z,32.71
2023-05-25T16:19:34.609Z,32.96
2023-05-25T16:22:01.030Z,33.25
2023-05-25T16:24:27.521Z,33.31
2023-05-25T16:26:54.025Z,33.65
2023-05-25T16:29:20.503Z,33.57
2023-05-25T16:31:46.930Z,33.46
2023-05-25T16:34:13.368Z,33.04
2023-05-25T16:36:39.876Z,33.43
2023-05-25T16:39:07.796Z,33.36
2023-05-25T16:41:34.270Z,33.22
2023-05-25T16:44:01.424Z,32.16
2023-05-25T16:46:27.806Z,31.97
2023-05-25T16:48:54.229Z,31.59
2023-05-25T16:51:20.591Z,31.68
2023-05-25T16:53:47.042Z,31.72
2023-05-25T16:56:13.453Z,31.62
2023-05-25T16:58:39.833Z,32.02
2023-05-25T17:01:06.295Z,31.48
2023-05-25T17:03:32.834Z,31.72
2023-05-25T17:05:59.314Z,31.25
2023-05-25T17:08:25.785Z,30.73
2023-05-25T17:10:52.366Z,30.30
2023-05-25T17:13:18.765Z,30.77
2023-05-25T17:15:45.400Z,30.88
2023-05-25T17:18:11.998Z,30.97
2023-05-25T17:20:38.613Z,31.32
2023-05-25T17:23:05.021Z,31.35
2023-05-25T17:25:33.365Z,30.98
2023-05-25T17:28:00.597Z,30.81
2023-05-25T17:30:27.097Z,30.71
2023-05-25T17:32:53.841Z,30.86
2023-05-25T17:35:20.320Z,30.51
2023-05-25T17:37:47.143Z,30.55
2023-05-25T17:40:14.193Z,30.79
2023-05-25T17:42:40.560Z,30.64
2023-05-25T17:45:11.390Z,30.23
2023-05-25T17:47:38.198Z,30.11
2023-05-25T17:50:05.467Z,30.35
2023-05-25T17:52:32.028Z,29.87
2023-05-25T17:54:58.404Z,30.30
2023-05-25T17:57:25.687Z,30.39
2023-05-25T17:59:52.086Z,30.14
2023-05-25T18:02:18.624Z,30.37
2023-05-25T18:04:45.333Z,30.32
2023-05-25T18:07:11.719Z,30.33
2023-05-25T18:09:38.228Z,30.23
2023-05-25T18:12:04.886Z,30.66
2023-05-25T18:14:35.260Z,30.67
2023-05-25T18:17:01.761Z,30.97
2023-05-25T18:19:28.225Z,30.87
2023-05-25T18:21:54.600Z,30.64
2023-05-25T18:24:20.999Z,30.54
2023-05-25T18:26:47.434Z,31.06
2023-05-25T18:29:13.805Z,31.35
2023-05-25T18:31:45.557Z,31.42
2023-05-25T18:34:12.383Z,31.38
2023-05-25T18:36:38.799Z,31.69
2023-05-25T18:39:05.280Z,32.34
2023-05-25T18:41:31.755Z,32.36
2023-05-25T18:43:58.178Z,32.53
2023-05-25T18:46:25.752Z,32.88
2023-05-25T18:48:52.649Z,33.08
2023-05-25T18:51:23.020Z,33.28
2023-05-25T18:53:49.418Z,33.33
2023-05-25T18:56:15.955Z,33.64
2023-05-25T18:58:42.486Z,34.00
2023-05-25T19:01:08.918Z,34.25
2023-05-25T19:03:35.488Z,34.52
2023-05-25T19:06:02.106Z,34.67
2023-05-25T19:08:28.529Z,35.17
2023-05-25T19:10:54.931Z,35.26
2023-05-25T19:13:22.851Z,35.87
2023-05-25T19:15:50.468Z,35.83
2023-05-25T19:18:17.282Z,35.91
2023-05-25T19:21:09.011Z,36.40
2023-05-25T19:23:39.374Z,36.89
2023-05-25T19:26:19.639Z,37.04
2023-05-25T19:28:56.253Z,37.23
2023-05-25T19:31:34.926Z,37.37
2023-05-25T19:34:24.687Z,37.48
2023-05-25T19:37:10.906Z,37.96
2023-05-25T19:39:43.457Z,38.25
2023-05-25T19:42:27.345Z,38.55
2023-05-25T19:45:03.272Z,38.81
2023-05-25T19:50:24.946Z,39.09
2023-05-25T19:53:08.126Z,39.31
2023-05-25T19:56:00.785Z,39.28
2023-05-25T19:58:34.407Z,39.77
2023-05-25T20:01:18.353Z,39.99
2023-05-25T20:03:54.720Z,40.37
2023-05-25T20:06:23.483Z,40.70
2023-05-25T20:09:01.211Z,40.45
2023-05-25T20:11:27.993Z,40.87
2023-05-25T20:13:56.343Z,41.10
2023-05-25T20:16:23.372Z,41.39
2023-05-25T20:18:49.860Z,41.82
2023-05-25T20:21:18.584Z,41.89
2023-05-25T20:23:45.042Z,42.29
2023-05-25T20:26:12.008Z,42.18
2023-05-25T20:28:38.469Z,42.34
2023-05-25T20:31:06.469Z,42.64
2023-05-25T20:33:33.007Z,42.51
2023-05-25T20:35:59.413Z,42.99
2023-05-25T20:38:26.263Z,42.94
2023-05-25T20:40:52.705Z,43.21
2023-05-25T20:43:19.129Z,43.31
2023-05-25T20:45:45.830Z,43.46
2023-05-25T20:48:12.449Z,43.69
2023-05-25T20:50:38.930Z,43.58
2023-05-25T20:53:05.503Z,43.99
2023-05-25T20:55:31.935Z,44.12
2023-05-25T20:58:00.658Z,44.38
2023-05-25T21:00:27.052Z,44.51
2023-05-25T21:02:53.465Z,44.57
2023-05-25T21:05:19.891Z,44.85
2023-05-25T21:07:46.333Z,44.63
2023-05-25T21:10:12.705Z,45.00
2023-05-25T21:12:39.164Z,45.13
2023-05-25T21:15:06.361Z,45.18
2023-05-25T21:17:32.821Z,45.25
2023-05-25T21:19:59.253Z,45.27
2023-05-25T21:22:25.868Z,45.44
2023-05-25T21:24:52.249Z,45.45
2023-05-25T21:27:18.728Z,45.79
2023-05-25T21:29:45.265Z,45.77
2023-05-25T21:32:11.728Z,45.86
2023-05-25T21:34:38.151Z,45.98
2023-05-25T21:37:04.773Z,46.03
2023-05-25T21:39:31.211Z,46.25
2023-05-25T21:41:57.604Z,46.29
2023-05-25T21:44:24.054Z,46.55
2023-05-25T21:46:50.466Z,46.48
2023-05-25T21:49:17.006Z,46.72
2023-05-25T21:51:43.485Z,46.83
2023-05-25T21:54:09.852Z,47.05
2023-05-25T21:56:36.235Z,46.80
2023-05-25T21:59:02.701Z,47.06
2023-05-25T22:01:29.219Z,47.20
2023-05-25T22:03:55.724Z,47.31
2023-05-25T22:06:22.151Z,47.44
2023-05-25T22:08:48.606Z,47.56
2023-05-25T22:11:14.985Z,47.70
2023-05-25T22:13:41.407Z,47.75
2023-05-25T22:16:07.784Z,48.16
2023-05-25T22:18:35.031Z,48.01
2023-05-25T22:21:02.427Z,48.02
2023-05-25T22:23:28.861Z,48.51
2023-05-25T22:25:55.284Z,48.32
2023-05-25T22:28:21.644Z,48.13
2023-05-25T22:30:48.080Z,48.45
2023-05-25T22:33:14.583Z,48.24
2023-05-25T22:35:40.936Z,48.91
2023-05-25T22:38:07.349Z,48.84
2023-05-25T22:40:33.707Z,49.02
2023-05-25T22:43:00.224Z,49.34
2023-05-25T22:45:26.609Z,49.36
2023-05-25T22:47:52.986Z,49.46
2023-05-25T22:50:19.356Z,49.46
2023-05-25T22:52:46.055Z,49.64
2023-05-25T22:55:12.526Z,49.96
2023-05-25T22:57:39.315Z,50.11
2023-05-25T23:00:06.548Z,49.99
2023-05-25T23:02:33.137Z,50.26
2023-05-25T23:04:59.707Z,50.48
2023-05-25T23:07:26.140Z,50.52
2023-05-25T23:09:52.528Z,50.78
2023-05-25T23:12:18.900Z,50.71
2023-05-25T23:14:45.301Z,50.76
2023-05-25T23:17:11.747Z,50.94
2023-05-25T23:19:38.653Z,51.21
2023-05-25T23:22:05.048Z,51.23
2023-05-25T23:24:31.596Z,51.35
2023-05-25T23:26:57.962Z,51.69
2023-05-25T23:29:24.338Z,51.84
2023-05-25T23:31:50.778Z,52.18
2023-05-25T23:34:17.145Z,52.08
2023-05-25T23:36:43.504Z,52.00
2023-05-25T23:39:10.045Z,52.64
2023-05-25T23:41:36.412Z,52.46
2023-05-25T23:44:02.831Z,52.64
2023-05-25T23:46:31.587Z,52.54
2023-05-25T23:48:58.455Z,52.84
2023-05-25T23:51:24.828Z,53.09
2023-05-25T23:53:51.216Z,53.13
2023-05-25T23:56:17.614Z,53.43
2023-05-25T23:58:43.988Z,53.66
